Terminal Aerodrome Forecast
Issued by NWS

Home | Current Version | Previous Version | Text Only | Print | Product List | Glossary On
Versions: 1 2 3 4 5 6 7 8 9 10 11 12
471
FTUS44 KCRP 231729
TAFLRD
TAF
KLRD 231729Z 2318/2418 13008KT P6SM SCT050
     FM232300 11012G20KT P6SM SCT100
     FM240600 11007KT P6SM SKC=

USA.gov is the U.S. government's official web portal to all federal, state and local government web resources and services.